createdAt,value
2022-07-30T09:41:29.134Z,14.40
2022-07-30T09:42:08.824Z,17.40
2022-07-30T09:43:08.791Z,16.40
2022-07-30T09:44:08.790Z,10.30
2022-07-30T10:28:39.375Z,8.40
2022-07-30T10:29:37.133Z,11.00
2022-07-30T10:40:41.626Z,7.70
2022-07-30T10:41:43.322Z,8.80
2022-07-30T10:42:41.587Z,11.70
2022-07-30T10:43:41.574Z,10.50
2022-07-30T11:12:06.025Z,10.30
2022-07-30T11:13:05.048Z,11.00
2022-07-30T11:14:05.031Z,6.00
2022-07-30T11:15:07.291Z,9.50
2022-07-30T11:16:04.989Z,6.70
2022-07-30T11:17:04.978Z,7.80
2022-07-30T11:18:04.988Z,8.50
2022-07-30T11:19:56.877Z,7.20
2022-07-30T11:20:04.943Z,6.40
2022-07-30T11:21:05.793Z,8.70
2022-07-30T11:22:05.176Z,7.90
2022-07-30T11:23:04.922Z,7.90
2022-07-30T11:24:04.892Z,6.70
2022-07-30T11:25:13.083Z,7.90
2022-07-30T11:26:04.874Z,9.20
2022-07-30T11:28:12.012Z,11.60
2022-07-30T11:29:11.974Z,9.40
2022-07-30T11:30:12.007Z,5.70
2022-07-30T11:31:11.963Z,8.70
2022-07-30T11:32:12.311Z,6.50
2022-07-30T11:33:11.946Z,5.80
2022-07-30T11:34:11.914Z,7.60
2022-07-30T11:35:11.915Z,6.10
2022-07-30T11:36:12.066Z,6.60
2022-07-30T11:37:22.154Z,5.80
2022-07-30T11:38:11.887Z,6.50
2022-07-30T11:39:11.862Z,7.10
2022-07-30T11:40:11.850Z,6.40
2022-07-30T11:41:11.829Z,4.70
2022-07-30T11:42:11.828Z,5.60
2022-07-30T11:43:11.821Z,7.80
2022-07-30T11:44:11.795Z,5.30
2022-07-30T11:45:11.784Z,6.20
2022-07-30T11:46:12.326Z,8.60
2022-07-30T11:47:11.769Z,5.40
2022-07-30T11:48:11.772Z,4.80
2022-07-30T11:49:11.790Z,6.00
2022-07-30T11:50:11.722Z,6.20
2022-07-30T11:51:11.707Z,6.30
2022-07-30T11:52:11.695Z,5.10
2022-07-30T11:53:11.708Z,5.10
2022-07-30T11:54:11.697Z,5.80
2022-07-30T11:55:11.660Z,5.90
2022-07-30T11:56:11.656Z,6.90
2022-07-30T11:57:11.650Z,6.80
2022-07-30T11:58:11.652Z,5.70
2022-07-30T11:59:11.623Z,5.50
2022-07-30T12:00:11.610Z,5.60
2022-07-30T12:01:11.594Z,6.10
2022-07-30T12:02:11.584Z,5.30
2022-07-30T12:03:11.752Z,4.30
2022-07-30T12:04:11.562Z,6.00
2022-07-30T12:05:11.554Z,4.90
2022-07-30T12:06:11.535Z,5.30
2022-07-30T12:07:11.533Z,6.10
2022-07-30T12:08:33.467Z,5.70
2022-07-30T12:09:11.506Z,6.00
2022-07-30T12:10:11.492Z,5.10
2022-07-30T12:11:11.471Z,4.80
2022-07-30T12:12:11.469Z,5.30
2022-07-30T12:13:11.457Z,4.70
2022-07-30T12:14:11.456Z,4.90
2022-07-30T12:15:11.424Z,5.90
2022-07-30T12:16:11.428Z,4.60
2022-07-30T12:17:15.035Z,4.90
2022-07-30T12:18:25.898Z,5.10
2022-07-30T12:19:11.395Z,4.40
2022-07-30T12:20:11.367Z,4.40
2022-07-30T12:21:11.367Z,4.40
2022-07-30T12:22:11.374Z,3.40
2022-07-30T12:23:11.349Z,3.70
2022-07-30T12:24:11.342Z,3.90
2022-07-30T12:25:11.320Z,3.10
2022-07-30T12:26:11.298Z,4.00
2022-07-30T12:27:11.347Z,2.90
2022-07-30T12:28:11.279Z,3.40
2022-07-30T12:29:11.288Z,2.70
2022-07-30T12:30:11.261Z,4.40
2022-07-30T12:31:11.241Z,3.00
2022-07-30T12:32:11.239Z,3.10
2022-07-30T12:33:11.231Z,2.90
2022-07-30T12:34:11.220Z,3.30
2022-07-30T12:35:11.197Z,4.00
2022-07-30T12:36:11.198Z,4.20
2022-07-30T12:37:11.182Z,3.90
2022-07-30T12:38:11.160Z,3.10
2022-07-30T12:39:11.174Z,4.60
2022-07-30T12:40:14.753Z,3.20
2022-07-30T12:41:11.124Z,3.10
2022-07-30T12:42:11.112Z,3.40
2022-07-30T12:43:13.500Z,5.50
2022-07-30T12:44:11.106Z,3.80
2022-07-30T12:45:11.091Z,3.60
2022-07-30T12:46:14.850Z,4.50
2022-07-30T12:47:11.071Z,4.30
2022-07-30T12:48:11.046Z,3.40
2022-07-30T12:49:21.957Z,5.50
2022-07-30T12:50:11.085Z,3.90
2022-07-30T12:51:11.011Z,4.40
2022-07-30T12:52:18.488Z,5.00
2022-07-30T12:53:11.002Z,5.20
2022-07-30T12:54:11.001Z,5.60
2022-07-30T12:55:10.978Z,5.20
2022-07-30T12:56:10.955Z,4.10
2022-07-30T12:57:10.946Z,4.80
2022-07-30T12:58:10.941Z,4.10
2022-07-30T12:59:10.934Z,4.80
2022-07-30T13:00:10.909Z,4.00
2022-07-30T13:01:10.938Z,4.50
2022-07-30T13:02:10.890Z,4.90
2022-07-30T13:03:10.892Z,5.20
2022-07-30T13:04:10.879Z,4.90
2022-07-30T13:05:12.127Z,4.60
2022-07-30T13:06:10.849Z,5.00
2022-07-30T13:07:10.850Z,5.00
2022-07-30T13:08:10.822Z,2.90
2022-07-30T13:09:10.841Z,5.10
2022-07-30T13:10:10.805Z,3.20
2022-07-30T13:11:10.794Z,3.30
2022-07-30T13:12:10.794Z,3.00
2022-07-30T13:13:10.794Z,3.70
2022-07-30T13:14:10.785Z,4.20
2022-07-30T13:15:10.769Z,3.50
2022-07-30T13:16:10.770Z,4.40
2022-07-30T13:17:10.734Z,5.60
2022-07-30T13:18:10.733Z,3.10
2022-07-30T13:19:10.728Z,3.70
2022-07-30T13:20:10.707Z,4.60
2022-07-30T13:21:10.712Z,3.90
2022-07-30T13:22:10.705Z,3.90
2022-07-30T13:23:10.678Z,4.40
2022-07-30T13:24:10.688Z,4.30
2022-07-30T13:25:10.677Z,7.30
2022-07-30T13:26:10.666Z,4.30
2022-07-30T13:27:10.637Z,3.90
2022-07-30T13:28:10.629Z,5.10
2022-07-30T13:29:10.648Z,2.60
2022-07-30T13:30:10.617Z,2.80
2022-07-30T13:31:10.598Z,4.30
2022-07-30T13:32:10.600Z,4.00
2022-07-30T13:33:10.595Z,2.90
2022-07-30T13:34:10.595Z,3.20
2022-07-30T13:35:10.560Z,5.40
2022-07-30T13:36:10.578Z,4.80
2022-07-30T13:37:10.569Z,4.90
2022-07-30T13:38:10.537Z,2.90
2022-07-30T13:39:10.538Z,4.80
2022-07-30T13:40:10.519Z,3.80
2022-07-30T13:41:10.514Z,2.90
2022-07-30T13:42:10.511Z,5.00
2022-07-30T13:43:10.500Z,3.80
2022-07-30T13:44:10.532Z,3.00
2022-07-30T13:45:10.472Z,2.60
2022-07-30T13:46:10.483Z,3.70
2022-07-30T13:47:10.470Z,5.20
2022-07-30T13:48:10.447Z,3.60
2022-07-30T13:49:10.564Z,3.40
2022-07-30T13:50:10.445Z,4.10
2022-07-30T13:51:10.434Z,3.40
2022-07-30T13:52:10.423Z,3.70
2022-07-30T13:53:10.416Z,3.20
2022-07-30T13:54:10.723Z,2.80
2022-07-30T13:55:10.393Z,4.70
2022-07-30T13:56:12.694Z,4.20
2022-07-30T13:57:10.374Z,2.60
2022-07-30T13:58:10.375Z,2.70
2022-07-30T13:59:10.378Z,2.70
2022-07-30T14:00:10.349Z,2.50
2022-07-30T14:01:18.163Z,3.10
2022-07-30T14:02:10.373Z,3.00
2022-07-30T14:03:10.325Z,2.90
2022-07-30T14:04:10.338Z,3.00
2022-07-30T14:05:10.327Z,2.70
2022-07-30T14:06:11.522Z,2.10
2022-07-30T14:07:10.311Z,4.50
2022-07-30T14:08:10.288Z,3.30
2022-07-30T14:09:10.311Z,2.60
2022-07-30T14:10:10.272Z,4.60
2022-07-30T14:11:10.272Z,3.00
2022-07-30T14:12:10.272Z,3.30
2022-07-30T14:13:10.250Z,2.20
2022-07-30T14:14:10.254Z,2.50
2022-07-30T14:15:12.069Z,2.50
2022-07-30T14:16:35.177Z,2.60
2022-07-30T14:17:10.228Z,4.00
2022-07-30T14:18:10.205Z,2.90
2022-07-30T14:19:22.618Z,5.40
2022-07-30T14:20:10.190Z,2.40
2022-07-30T14:21:10.181Z,3.10
2022-07-30T14:22:10.171Z,4.20
2022-07-30T14:23:10.169Z,2.40
2022-07-30T14:24:10.159Z,2.40
2022-07-30T14:25:10.160Z,2.60
2022-07-30T14:26:10.135Z,4.00
2022-07-30T14:27:10.127Z,5.00
2022-07-30T14:28:10.117Z,3.50
2022-07-30T14:29:10.118Z,2.50
2022-07-30T14:30:10.115Z,2.90
2022-07-30T14:31:10.103Z,2.70
2022-07-30T14:32:10.081Z,5.10
2022-07-30T14:33:10.085Z,2.50
2022-07-30T14:34:10.069Z,3.00
2022-07-30T14:35:10.072Z,3.60
2022-07-30T14:36:10.066Z,3.30
2022-07-30T14:37:14.442Z,3.00
2022-07-30T14:38:10.055Z,3.10
2022-07-30T14:39:10.022Z,2.80
2022-07-30T14:40:10.049Z,4.60
2022-07-30T14:41:10.010Z,2.00
2022-07-30T14:42:10.012Z,1.90
2022-07-30T14:43:09.994Z,3.60
2022-07-30T14:44:09.999Z,2.20
2022-07-30T14:45:10.011Z,2.60
2022-07-30T14:46:10.004Z,2.90
2022-07-30T14:47:09.974Z,2.80
2022-07-30T14:48:09.962Z,4.20
2022-07-30T14:49:10.036Z,2.00
2022-07-30T14:50:09.963Z,3.00
2022-07-30T14:51:17.755Z,2.40
2022-07-30T14:52:09.950Z,2.70
2022-07-30T14:53:09.937Z,4.70
2022-07-30T14:54:09.941Z,2.90
2022-07-30T14:55:09.956Z,1.80
2022-07-30T14:56:09.943Z,2.20
2022-07-30T14:57:09.913Z,2.30
2022-07-30T14:58:09.963Z,2.60
2022-07-30T14:59:09.915Z,1.80
2022-07-30T15:00:09.907Z,2.60
2022-07-30T15:01:16.585Z,2.40
2022-07-30T15:02:10.880Z,3.50
2022-07-30T15:03:09.893Z,1.60
2022-07-30T15:04:09.883Z,3.00
2022-07-30T15:05:09.882Z,2.60
2022-07-30T15:06:09.876Z,4.10
2022-07-30T15:07:09.872Z,1.70
2022-07-30T15:08:17.776Z,1.60
2022-07-30T15:09:09.850Z,1.60
2022-07-30T15:10:09.842Z,1.90
2022-07-30T15:11:09.881Z,1.90
2022-07-30T15:12:26.814Z,2.20
2022-07-30T15:13:09.829Z,2.40
2022-07-30T15:14:09.825Z,3.70
2022-07-30T15:15:09.819Z,1.90
2022-07-30T15:16:09.825Z,2.00
2022-07-30T15:17:09.823Z,3.30
2022-07-30T15:18:09.813Z,1.60
2022-07-30T15:19:09.805Z,1.90
2022-07-30T15:20:09.799Z,2.20
2022-07-30T15:21:09.812Z,1.70
2022-07-30T15:22:09.792Z,2.50
2022-07-30T15:23:13.369Z,2.40
2022-07-30T15:24:09.774Z,2.60
2022-07-30T15:25:09.783Z,3.40
2022-07-30T15:26:09.775Z,2.50
2022-07-30T15:27:09.758Z,2.20
2022-07-30T15:28:09.769Z,2.30
2022-07-30T15:29:13.313Z,2.70
2022-07-30T15:30:09.753Z,2.10
2022-07-30T15:31:09.754Z,1.90
2022-07-30T15:32:09.745Z,2.20
2022-07-30T15:33:09.740Z,1.70
2022-07-30T15:34:09.734Z,2.30
2022-07-30T15:35:13.605Z,3.10
2022-07-30T15:36:09.728Z,2.40
2022-07-30T15:37:09.711Z,2.10
2022-07-30T15:38:09.714Z,1.80
2022-07-30T15:39:09.711Z,1.70
2022-07-30T15:40:09.707Z,2.80
2022-07-30T15:41:13.497Z,1.60
2022-07-30T15:42:09.696Z,2.40
2022-07-30T15:43:10.255Z,1.40
2022-07-30T15:44:09.689Z,3.10
2022-07-30T15:45:18.261Z,1.70
2022-07-30T15:46:09.686Z,2.20
2022-07-30T15:47:13.033Z,2.50
2022-07-30T15:48:09.664Z,1.30
2022-07-30T15:49:09.727Z,1.80
2022-07-30T15:50:09.663Z,2.10
2022-07-30T15:51:09.661Z,1.50
2022-07-30T15:52:09.655Z,2.00
2022-07-30T15:53:11.759Z,3.10
2022-07-30T15:54:09.644Z,2.40
2022-07-30T15:55:09.646Z,1.50
2022-07-30T15:56:09.639Z,3.00
2022-07-30T15:57:09.638Z,3.50
2022-07-30T15:58:09.641Z,1.50
2022-07-30T15:59:09.625Z,2.20
2022-07-30T16:00:09.620Z,1.60
2022-07-30T16:01:09.676Z,1.70
2022-07-30T16:02:09.613Z,3.40
2022-07-30T16:03:09.607Z,2.60
2022-07-30T16:04:19.037Z,2.30
2022-07-30T16:05:13.622Z,1.80
2022-07-30T16:06:09.609Z,2.10
2022-07-30T16:07:09.591Z,1.70
2022-07-30T16:08:09.581Z,2.20
2022-07-30T16:09:09.584Z,1.60
2022-07-30T16:10:09.574Z,1.90
2022-07-30T16:11:10.859Z,2.50
2022-07-30T16:12:09.564Z,2.70
2022-07-30T16:13:09.569Z,2.80
2022-07-30T16:14:09.570Z,1.80
2022-07-30T16:15:09.563Z,3.10
2022-07-30T16:16:09.588Z,2.10
2022-07-30T16:17:13.543Z,2.40
2022-07-30T16:18:09.559Z,4.20
2022-07-30T16:19:09.541Z,2.30
2022-07-30T16:20:09.562Z,2.80
2022-07-30T16:21:09.538Z,1.80
2022-07-30T16:22:09.576Z,3.40
2022-07-30T16:23:13.299Z,2.50
2022-07-30T16:24:09.528Z,3.40
2022-07-30T16:25:09.522Z,1.30
2022-07-30T16:26:09.524Z,2.20
2022-07-30T16:27:09.539Z,2.20
2022-07-30T16:28:09.521Z,2.00
2022-07-30T16:29:13.544Z,2.60
2022-07-30T16:30:09.507Z,2.10
2022-07-30T16:31:09.514Z,2.50
2022-07-30T16:32:09.511Z,1.70
2022-07-30T16:33:09.509Z,2.50
2022-07-30T16:34:09.509Z,2.10
2022-07-30T16:35:13.148Z,1.70
2022-07-30T16:36:09.493Z,2.50
2022-07-30T16:37:09.497Z,2.20
2022-07-30T16:38:09.485Z,2.00
2022-07-30T16:39:09.479Z,2.50
2022-07-30T16:40:09.488Z,2.40
2022-07-30T16:41:13.235Z,1.50
2022-07-30T16:42:09.488Z,1.60
2022-07-30T16:43:09.498Z,1.80
2022-07-30T16:44:09.472Z,1.60
2022-07-30T16:45:09.466Z,1.50
2022-07-30T16:46:09.466Z,1.20
2022-07-30T16:47:13.457Z,1.50
2022-07-30T16:48:09.459Z,1.20
2022-07-30T16:49:09.507Z,1.20
2022-07-30T16:50:09.459Z,1.30
2022-07-30T16:51:09.453Z,2.10
2022-07-30T16:52:09.464Z,1.50
2022-07-30T16:53:13.514Z,1.30
2022-07-30T16:54:09.447Z,1.20
2022-07-30T16:58:49.616Z,0.80
2022-07-30T16:59:49.591Z,1.50
2022-07-30T17:33:24.808Z,1.00
2022-07-30T17:34:24.797Z,1.80
2022-07-30T17:35:24.788Z,2.80
2022-07-30T17:36:24.770Z,1.20
2022-07-30T17:37:24.756Z,3.00
2022-07-30T17:38:24.738Z,2.40
